Time;durP1;ratioP1;P1;durP2;ratioP2;P2;SDS_P1;SDS_P2;PMS_P1;PMS_P2;Temp;Humidity;BMP_temperature;BMP_pressure;BME280_temperature;BME280_humidity;BME280_pressure;Samples;Min_cycle;Max_cycle;Signal;HPM_P1;HPM_P2
2021/03/17 00:00:59;;;;;;;20.80;10.38;;;2.60;99.90;;;;;;4995314;28;20046;-68
2021/03/17 00:03:25;;;;;;;15.77;8.90;;;2.60;99.90;;;;;;4993829;28;20129;-68
2021/03/17 00:05:53;;;;;;;17.30;10.75;;;2.60;99.90;;;;;;4993154;28;20054;-68
2021/03/17 00:08:21;;;;;;;21.75;10.07;;;2.50;99.90;;;;;;5001681;28;20471;-67
2021/03/17 00:10:53;;;;;;;17.35;9.60;;;2.50;99.90;;;;;;4994219;28;20069;-68
2021/03/17 00:13:38;;;;;;;14.02;8.50;;;2.50;99.90;;;;;;4993571;28;20077;-68
2021/03/17 00:16:05;;;;;;;15.98;8.82;;;2.40;99.90;;;;;;4992397;28;20054;-68
2021/03/17 00:18:31;;;;;;;16.00;7.55;;;2.40;99.90;;;;;;4993705;28;20049;-68
2021/03/17 00:20:58;;;;;;;22.30;7.85;;;2.40;99.90;;;;;;4995670;28;20096;-67
2021/03/17 00:23:24;;;;;;;12.45;7.88;;;2.40;99.90;;;;;;4991595;28;20129;-68
2021/03/17 00:25:51;;;;;;;16.23;7.25;;;2.30;99.90;;;;;;5002048;28;20408;-67
2021/03/17 00:28:17;;;;;;;13.85;7.35;;;2.20;99.90;;;;;;5001561;28;20065;-67
2021/03/17 00:30:44;;;;;;;15.50;7.63;;;2.20;99.90;;;;;;4994387;28;20464;-67
2021/03/17 00:33:13;;;;;;;12.35;6.28;;;2.20;99.90;;;;;;4993336;28;20050;-68
2021/03/17 00:35:42;;;;;;;10.77;6.00;;;2.20;99.90;;;;;;4987847;28;20086;-68
2021/03/17 00:38:10;;;;;;;13.05;6.70;;;2.10;99.90;;;;;;4993129;28;20053;-68
2021/03/17 00:40:37;;;;;;;13.80;6.88;;;2.00;99.90;;;;;;4988577;28;20146;-68
2021/03/17 00:43:04;;;;;;;14.95;7.53;;;2.00;99.90;;;;;;4992043;28;20058;-68
2021/03/17 00:45:31;;;;;;;14.40;7.72;;;1.90;99.90;;;;;;4994159;28;20054;-69
2021/03/17 00:47:58;;;;;;;14.35;7.40;;;1.80;99.90;;;;;;4988342;28;20478;-68
2021/03/17 00:50:25;;;;;;;13.25;7.47;;;1.70;99.90;;;;;;4992589;28;20062;-67
2021/03/17 00:52:56;;;;;;;12.02;7.20;;;1.70;99.90;;;;;;4992719;28;20054;-68
2021/03/17 00:55:23;;;;;;;13.27;7.75;;;1.60;99.90;;;;;;4998116;28;20061;-67
2021/03/17 00:57:50;;;;;;;15.13;8.57;;;1.50;99.90;;;;;;4983416;28;20061;-68
2021/03/17 01:00:18;;;;;;;15.20;8.32;;;1.40;99.90;;;;;;4993809;28;20050;-68
2021/03/17 01:02:45;;;;;;;13.82;7.63;;;1.40;99.90;;;;;;4993037;28;20042;-68
2021/03/17 01:05:12;;;;;;;12.90;8.23;;;1.30;99.90;;;;;;4992244;28;20077;-68
2021/03/17 01:07:39;;;;;;;15.25;7.78;;;1.20;99.90;;;;;;4992159;28;20060;-68
2021/03/17 01:10:16;;;;;;;11.80;7.68;;;1.20;99.90;;;;;;4987290;28;20050;-69
2021/03/17 01:12:43;;;;;;;18.17;8.80;;;1.20;99.90;;;;;;4993115;28;20050;-67
2021/03/17 01:15:16;;;;;;;15.07;9.15;;;1.10;99.90;;;;;;4987488;28;20477;-68
2021/03/17 01:17:44;;;;;;;15.27;9.15;;;1.10;99.90;;;;;;4987758;28;20413;-69
2021/03/17 01:20:12;;;;;;;16.98;9.45;;;1.10;99.90;;;;;;4994743;28;20069;-68
2021/03/17 01:22:38;;;;;;;18.35;9.38;;;1.10;99.90;;;;;;4992978;28;20049;-68
2021/03/17 01:25:14;;;;;;;14.07;8.52;;;1.10;99.90;;;;;;4993828;28;20042;-68
2021/03/17 01:27:40;;;;;;;15.20;7.75;;;1.10;99.90;;;;;;4992934;28;20069;-68
2021/03/17 01:30:09;;;;;;;17.15;8.48;;;1.10;99.90;;;;;;4990435;28;20117;-69
2021/03/17 01:32:36;;;;;;;18.40;8.75;;;1.20;99.90;;;;;;4984880;28;20137;-69
2021/03/17 01:35:13;;;;;;;11.63;8.00;;;1.10;99.90;;;;;;4992412;28;20053;-69
2021/03/17 01:37:40;;;;;;;14.60;8.45;;;1.10;99.90;;;;;;4991498;28;20054;-68
2021/03/17 01:40:07;;;;;;;19.27;8.30;;;1.10;99.90;;;;;;5000467;28;20397;-69
2021/03/17 01:42:34;;;;;;;13.90;8.20;;;1.10;99.90;;;;;;4992345;28;20493;-68
2021/03/17 01:45:14;;;;;;;13.68;8.20;;;1.10;99.90;;;;;;4992425;28;20054;-68
2021/03/17 01:47:42;;;;;;;15.55;8.27;;;1.10;99.90;;;;;;4992443;28;20050;-68
2021/03/17 01:50:16;;;;;;;13.45;7.65;;;1.10;99.90;;;;;;4993103;28;20515;-68
2021/03/17 01:52:44;;;;;;;13.48;7.65;;;1.10;99.90;;;;;;4992711;28;20477;-69
2021/03/17 01:55:11;;;;;;;15.35;8.32;;;1.20;99.90;;;;;;4992234;28;20054;-68
2021/03/17 01:57:38;;;;;;;13.60;7.72;;;1.20;99.90;;;;;;4991459;28;20458;-68
2021/03/17 02:00:09;;;;;;;13.98;8.10;;;1.20;99.90;;;;;;4992893;28;20046;-68
2021/03/17 02:02:37;;;;;;;14.23;8.32;;;1.20;99.90;;;;;;4992186;28;20504;-68
2021/03/17 02:05:10;;;;;;;17.30;8.88;;;1.20;99.90;;;;;;4991035;28;20468;-68
2021/03/17 02:07:37;;;;;;;12.35;7.85;;;1.30;99.90;;;;;;4989198;28;20046;-69
2021/03/17 02:10:13;;;;;;;15.88;8.98;;;1.30;99.90;;;;;;4992304;28;20489;-68
2021/03/17 02:13:04;;;;;;;17.08;8.45;;;1.30;99.90;;;;;;4992315;28;20050;-68
2021/03/17 02:15:54;;;;;;;15.88;8.38;;;1.30;99.90;;;;;;4984437;28;20054;-69
2021/03/17 02:18:25;;;;;;;17.23;9.45;;;1.30;99.90;;;;;;4991399;28;20044;-68
2021/03/17 02:21:18;;;;;;;18.88;9.05;;;1.20;99.90;;;;;;4990998;28;20046;-68
2021/03/17 02:24:08;;;;;;;15.00;9.15;;;1.20;99.90;;;;;;5005526;28;20055;-68
2021/03/17 02:26:59;;;;;;;20.75;10.65;;;1.20;99.90;;;;;;4990487;28;20061;-69
2021/03/17 02:29:47;;;;;;;23.13;10.85;;;1.20;99.90;;;;;;4983405;28;20112;-69
2021/03/17 02:32:22;;;;;;;18.42;10.48;;;1.10;99.90;;;;;;4981570;28;20064;-68
2021/03/17 02:34:51;;;;;;;16.85;10.75;;;1.10;99.90;;;;;;4992135;28;20054;-69
2021/03/17 02:37:22;;;;;;;18.55;10.82;;;1.00;99.90;;;;;;4995134;28;20508;-68
2021/03/17 02:40:02;;;;;;;20.67;11.32;;;1.00;99.90;;;;;;4994751;28;20054;-68
2021/03/17 02:42:42;;;;;;;17.67;10.88;;;0.90;99.90;;;;;;4997997;28;20042;-68
2021/03/17 02:45:13;;;;;;;18.40;10.43;;;0.90;99.90;;;;;;4991084;28;20061;-67
2021/03/17 02:47:47;;;;;;;17.70;9.70;;;0.80;99.90;;;;;;4995064;28;20058;-68
2021/03/17 02:50:15;;;;;;;15.77;9.70;;;0.80;99.90;;;;;;4995848;28;20050;-68
2021/03/17 02:52:50;;;;;;;17.25;10.32;;;0.70;99.90;;;;;;4995468;28;20046;-68
2021/03/17 02:55:18;;;;;;;22.58;11.95;;;0.70;99.90;;;;;;4995838;28;20053;-68
2021/03/17 02:57:46;;;;;;;26.58;15.68;;;0.70;99.90;;;;;;4995583;28;20137;-68
2021/03/17 03:00:14;;;;;;;23.05;13.13;;;0.70;99.90;;;;;;4995662;28;20757;-68
2021/03/17 03:02:43;;;;;;;20.33;11.32;;;0.70;99.90;;;;;;5000373;28;20385;-68
2021/03/17 03:05:14;;;;;;;20.35;12.25;;;0.70;99.90;;;;;;4984109;28;20052;-68
2021/03/17 03:07:42;;;;;;;19.85;11.00;;;0.70;99.90;;;;;;4994265;28;20072;-68
2021/03/17 03:10:10;;;;;;;23.70;12.52;;;0.60;99.90;;;;;;4995211;28;20046;-69
2021/03/17 03:12:38;;;;;;;19.15;12.20;;;0.60;99.90;;;;;;4996244;28;20046;-67
2021/03/17 03:15:09;;;;;;;22.00;11.88;;;0.60;99.90;;;;;;4991794;28;20046;-67
2021/03/17 03:17:38;;;;;;;23.23;13.38;;;0.60;99.90;;;;;;4993697;28;20048;-67
2021/03/17 03:20:08;;;;;;;23.80;12.80;;;0.60;99.90;;;;;;4998572;28;20130;-68
2021/03/17 03:22:36;;;;;;;23.60;14.32;;;0.60;99.90;;;;;;5001788;28;20050;-68
2021/03/17 03:25:03;;;;;;;24.52;14.40;;;0.70;99.90;;;;;;4996476;28;20049;-70
2021/03/17 03:27:30;;;;;;;28.33;14.82;;;0.80;99.90;;;;;;5000904;28;20053;-68
2021/03/17 03:29:57;;;;;;;23.63;14.60;;;1.00;99.90;;;;;;5010409;28;20050;-68
2021/03/17 03:32:24;;;;;;;25.20;14.73;;;1.00;99.90;;;;;;4994855;28;20051;-68
2021/03/17 03:34:51;;;;;;;23.60;13.57;;;1.10;99.90;;;;;;5001800;28;20081;-68
2021/03/17 03:37:17;;;;;;;26.60;13.07;;;1.10;99.90;;;;;;5007065;28;20054;-68
2021/03/17 03:39:44;;;;;;;20.83;12.75;;;1.10;99.90;;;;;;4993917;28;20050;-68
2021/03/17 03:42:11;;;;;;;22.80;13.25;;;1.20;99.90;;;;;;4999570;28;20060;-68
2021/03/17 03:44:38;;;;;;;28.38;13.90;;;1.20;99.90;;;;;;4995389;28;20133;-68
2021/03/17 03:47:04;;;;;;;26.10;15.75;;;1.20;99.90;;;;;;4993512;28;20051;-68
2021/03/17 03:49:31;;;;;;;24.55;15.27;;;1.30;99.90;;;;;;5000103;28;20049;-68
2021/03/17 03:52:06;;;;;;;23.52;14.50;;;1.30;99.90;;;;;;4994879;28;20054;-68
2021/03/17 03:54:39;;;;;;;26.67;15.15;;;1.30;99.90;;;;;;4998371;28;20481;-68
2021/03/17 03:57:28;;;;;;;27.85;14.68;;;1.40;99.90;;;;;;5001548;28;20527;-68
2021/03/17 04:00:03;;;;;;;30.63;15.10;;;1.50;99.90;;;;;;4993470;28;20121;-69
2021/03/17 04:02:32;;;;;;;28.10;15.85;;;1.60;99.90;;;;;;4986016;28;20046;-68
2021/03/17 04:05:02;;;;;;;28.83;15.13;;;1.60;99.90;;;;;;4994275;28;20073;-69
2021/03/17 04:07:30;;;;;;;25.85;14.40;;;1.70;99.90;;;;;;4997947;28;20520;-69
2021/03/17 04:10:03;;;;;;;25.83;14.88;;;1.70;99.90;;;;;;5004703;28;20567;-69
2021/03/17 04:12:33;;;;;;;23.52;14.23;;;1.80;99.90;;;;;;5001344;28;20429;-69
2021/03/17 04:15:01;;;;;;;29.08;15.70;;;1.90;99.90;;;;;;4993710;28;20408;-69
2021/03/17 04:17:33;;;;;;;24.38;14.57;;;1.90;99.90;;;;;;4995340;28;20050;-68
2021/03/17 04:20:08;;;;;;;26.38;14.52;;;1.90;99.90;;;;;;4995720;28;20045;-68
2021/03/17 04:22:37;;;;;;;31.10;16.08;;;2.00;99.90;;;;;;4993053;28;20042;-68
2021/03/17 04:25:10;;;;;;;25.17;15.20;;;2.00;99.90;;;;;;4993936;28;20042;-68
2021/03/17 04:27:38;;;;;;;26.70;15.88;;;2.00;99.90;;;;;;4994209;28;20058;-68
2021/03/17 04:30:06;;;;;;;27.30;15.18;;;2.10;99.90;;;;;;4994996;28;20080;-68
2021/03/17 04:32:34;;;;;;;23.77;15.32;;;2.00;99.90;;;;;;4991982;28;20385;-68
2021/03/17 04:35:01;;;;;;;27.27;15.45;;;2.10;99.90;;;;;;4994125;28;20054;-68
2021/03/17 04:37:30;;;;;;;26.25;15.55;;;2.10;99.90;;;;;;4993587;28;20417;-68
2021/03/17 04:39:59;;;;;;;25.45;15.38;;;2.00;99.90;;;;;;4998018;28;20046;-68
2021/03/17 04:42:26;;;;;;;24.58;14.18;;;2.00;99.90;;;;;;4993590;28;20489;-68
2021/03/17 04:44:54;;;;;;;27.13;14.82;;;2.00;99.90;;;;;;4998809;28;20046;-68
2021/03/17 04:47:22;;;;;;;26.35;14.82;;;2.00;99.90;;;;;;4993307;28;20050;-68
2021/03/17 04:49:50;;;;;;;25.70;14.63;;;2.10;99.90;;;;;;4992234;28;20547;-68
2021/03/17 04:52:19;;;;;;;28.00;15.38;;;2.10;99.90;;;;;;4993114;28;20061;-68
2021/03/17 04:54:46;;;;;;;32.97;15.90;;;2.10;99.90;;;;;;4995468;28;20058;-68
2021/03/17 04:57:18;;;;;;;30.80;17.20;;;2.10;99.90;;;;;;4999691;28;20046;-69
2021/03/17 04:59:45;;;;;;;;;;;2.00;99.90;;;;;;4993199;28;20077;-68
2021/03/17 05:02:13;;;;;;;31.70;15.48;;;2.00;99.90;;;;;;4993332;28;19922;-68
2021/03/17 05:04:42;;;;;;;29.35;16.77;;;2.00;99.90;;;;;;5000201;28;20052;-68
2021/03/17 05:07:12;;;;;;;31.13;16.85;;;2.00;99.90;;;;;;4997389;28;20054;-68
2021/03/17 05:09:40;;;;;;;29.98;17.10;;;2.00;99.90;;;;;;4998479;28;20054;-68
2021/03/17 05:12:08;;;;;;;37.20;19.10;;;2.00;99.90;;;;;;4999765;28;20074;-68
2021/03/17 05:14:36;;;;;;;33.70;16.80;;;2.00;99.90;;;;;;4992183;28;20058;-68
2021/03/17 05:17:04;;;;;;;30.33;16.40;;;2.00;99.90;;;;;;4992670;28;20439;-68
2021/03/17 05:19:32;;;;;;;30.20;16.35;;;2.00;99.90;;;;;;5002486;28;20104;-68
2021/03/17 05:22:00;;;;;;;33.55;16.85;;;1.90;99.90;;;;;;4994591;28;20129;-68
2021/03/17 05:24:27;;;;;;;30.55;17.42;;;1.90;99.90;;;;;;4992193;28;20062;-68
2021/03/17 05:26:55;;;;;;;36.22;17.75;;;1.80;99.90;;;;;;4993119;28;20050;-68
2021/03/17 05:29:25;;;;;;;35.08;17.83;;;1.80;99.90;;;;;;5006290;28;20050;-68
2021/03/17 05:31:52;;;;;;;33.05;17.48;;;1.80;99.90;;;;;;4992265;28;20061;-68
2021/03/17 05:34:20;;;;;;;32.50;17.10;;;1.80;99.90;;;;;;5003956;28;20056;-69
2021/03/17 05:36:47;;;;;;;33.30;16.58;;;1.90;99.90;;;;;;4992730;28;20405;-68
2021/03/17 05:39:15;;;;;;;33.50;18.55;;;1.90;99.90;;;;;;4991759;28;20050;-68
2021/03/17 05:41:42;;;;;;;35.40;19.15;;;2.00;99.90;;;;;;4993589;28;20042;-68
2021/03/17 05:44:09;;;;;;;35.92;19.85;;;2.00;99.90;;;;;;4992171;28;20042;-68
2021/03/17 05:46:37;;;;;;;40.42;21.15;;;2.00;99.90;;;;;;4998023;28;20050;-68
2021/03/17 05:49:06;;;;;;;41.00;21.23;;;2.00;99.90;;;;;;4980871;28;20057;-68
2021/03/17 05:51:34;;;;;;;41.58;21.80;;;2.00;99.90;;;;;;4980018;28;20042;-68
2021/03/17 05:54:05;;;;;;;40.20;21.90;;;2.10;99.90;;;;;;4986771;28;20046;-68
2021/03/17 05:56:32;;;;;;;37.72;20.88;;;2.10;99.90;;;;;;4991695;28;20052;-68
2021/03/17 05:59:01;;;;;;;38.35;20.08;;;2.10;99.90;;;;;;4991561;28;20060;-68
2021/03/17 06:01:28;;;;;;;34.80;19.60;;;2.10;99.90;;;;;;4988171;28;20065;-68
2021/03/17 06:03:58;;;;;;;33.50;19.25;;;2.10;99.90;;;;;;4992639;28;20046;-68
2021/03/17 06:06:28;;;;;;;37.30;20.25;;;2.10;99.90;;;;;;4991427;28;20061;-68
2021/03/17 06:09:01;;;;;;;37.72;19.70;;;2.10;99.90;;;;;;4992349;28;20759;-68
2021/03/17 06:11:30;;;;;;;35.60;19.85;;;2.10;99.90;;;;;;4998661;28;20046;-68
2021/03/17 06:13:57;;;;;;;40.22;20.15;;;2.10;99.90;;;;;;4991659;28;20054;-68
2021/03/17 06:16:25;;;;;;;34.30;19.52;;;2.10;99.90;;;;;;4996952;28;20042;-68
2021/03/17 06:18:55;;;;;;;37.88;20.15;;;2.20;99.90;;;;;;4979552;28;20049;-69
2021/03/17 06:21:22;;;;;;;35.90;19.98;;;2.20;99.90;;;;;;4992374;28;20430;-68
2021/03/17 06:23:51;;;;;;;38.55;20.98;;;2.30;99.90;;;;;;4987789;28;20050;-68
2021/03/17 06:26:18;;;;;;;47.63;25.30;;;2.30;99.90;;;;;;4987959;28;20104;-68
2021/03/17 06:28:46;;;;;;;36.72;20.10;;;2.30;99.90;;;;;;4987819;28;20497;-69
2021/03/17 06:31:18;;;;;;;;;;;2.40;99.90;;;;;;4983438;28;20473;-68
2021/03/17 06:33:45;;;;;;;38.58;19.45;;;2.40;99.90;;;;;;4992629;28;19972;-68
2021/03/17 06:36:26;;;;;;;35.35;19.15;;;2.50;99.90;;;;;;4992117;28;20076;-68
2021/03/17 06:39:10;;;;;;;34.20;19.23;;;2.50;99.90;;;;;;4990729;28;20078;-68
2021/03/17 06:41:53;;;;;;;39.58;19.73;;;2.50;99.90;;;;;;4988078;28;20070;-68
2021/03/17 06:44:22;;;;;;;36.45;19.40;;;2.60;99.90;;;;;;4991792;28;20046;-68
2021/03/17 06:47:14;;;;;;;39.90;18.38;;;2.60;99.90;;;;;;4995634;28;20466;-68
2021/03/17 06:49:43;;;;;;;38.90;20.05;;;2.60;99.90;;;;;;4995094;28;20489;-68
2021/03/17 06:52:34;;;;;;;36.00;19.35;;;2.60;99.90;;;;;;4991154;28;20054;-68
2021/03/17 06:55:17;;;;;;;35.40;19.20;;;2.60;99.90;;;;;;4984723;28;20051;-68
2021/03/17 06:57:54;;;;;;;34.45;19.50;;;2.60;99.90;;;;;;4988229;28;20735;-69
2021/03/17 07:00:35;;;;;;;33.53;18.48;;;2.70;99.90;;;;;;4986468;28;20043;-67
2021/03/17 07:03:04;;;;;;;;;;;2.80;99.90;;;;;;4988759;28;20046;-68
2021/03/17 07:05:51;;;;;;;43.20;18.95;;;2.80;99.90;;;;;;4993778;28;19922;-69
2021/03/17 07:08:30;;;;;;;37.83;20.30;;;2.90;99.90;;;;;;4993221;28;20043;-67
2021/03/17 07:10:58;;;;;;;30.42;17.90;;;2.90;99.90;;;;;;4993974;28;20038;-68
2021/03/17 07:13:26;;;;;;;33.40;18.52;;;2.90;99.90;;;;;;4991448;28;20047;-69
2021/03/17 07:15:58;;;;;;;35.15;19.00;;;2.90;99.90;;;;;;4994682;28;20048;-68
2021/03/17 07:18:27;;;;;;;36.55;18.23;;;2.90;99.90;;;;;;4993812;28;20129;-68
2021/03/17 07:21:03;;;;;;;35.58;18.33;;;3.00;99.90;;;;;;4991846;28;20473;-68
2021/03/17 07:23:40;;;;;;;29.73;17.20;;;3.00;99.90;;;;;;4994743;28;20432;-68
2021/03/17 07:26:23;;;;;;;36.10;18.63;;;3.10;99.90;;;;;;4994644;28;20051;-68
2021/03/17 07:28:51;;;;;;;27.67;15.50;;;3.30;99.90;;;;;;4994974;28;20579;-68
2021/03/17 07:31:23;;;;;;;27.02;16.10;;;3.40;99.90;;;;;;4995000;28;20054;-67
2021/03/17 07:33:51;;;;;;;29.33;15.30;;;3.50;99.90;;;;;;4994401;28;20058;-69
2021/03/17 07:36:32;;;;;;;26.35;14.38;;;3.60;99.90;;;;;;4993846;28;20330;-67
2021/03/17 07:39:02;;;;;;;25.30;14.88;;;3.70;99.90;;;;;;5005561;28;20052;-67
2021/03/17 07:41:28;;;;;;;25.88;14.57;;;3.70;99.90;;;;;;4994023;28;20055;-66
2021/03/17 07:43:57;;;;;;;22.42;14.48;;;3.70;99.90;;;;;;4994249;28;20060;-68
2021/03/17 07:46:24;;;;;;;26.77;13.88;;;3.60;99.90;;;;;;4995476;28;20481;-67
2021/03/17 07:48:59;;;;;;;23.17;13.73;;;3.60;99.90;;;;;;5002631;28;20054;-67
2021/03/17 07:51:26;;;;;;;23.23;13.95;;;3.60;99.90;;;;;;4993901;28;20447;-67
2021/03/17 07:53:55;;;;;;;24.17;12.90;;;3.70;99.90;;;;;;4993677;28;20053;-66
2021/03/17 07:56:24;;;;;;;26.15;13.38;;;3.80;99.90;;;;;;4993204;28;20054;-67
2021/03/17 07:58:54;;;;;;;22.42;13.07;;;3.90;99.90;;;;;;4993361;28;20052;-66
2021/03/17 08:01:22;;;;;;;20.55;11.38;;;4.00;99.90;;;;;;4993044;28;20050;-66
2021/03/17 08:03:51;;;;;;;20.08;11.35;;;4.20;99.90;;;;;;4993868;28;20489;-68
2021/03/17 08:06:21;;;;;;;20.65;11.20;;;4.30;99.90;;;;;;4993102;28;20054;-68
2021/03/17 08:08:49;;;;;;;20.83;11.05;;;4.40;99.90;;;;;;4993387;28;20137;-68
2021/03/17 08:11:20;;;;;;;17.55;10.07;;;4.40;99.90;;;;;;4987186;28;20141;-68
2021/03/17 08:13:49;;;;;;;21.05;11.30;;;4.50;99.90;;;;;;4987995;28;20060;-66
2021/03/17 08:16:26;;;;;;;17.92;10.05;;;4.60;99.90;;;;;;4986107;28;20515;-67
2021/03/17 08:18:53;;;;;;;17.23;9.52;;;4.80;99.90;;;;;;4988020;28;20082;-67
2021/03/17 08:21:47;;;;;;;16.70;9.57;;;4.90;99.90;;;;;;4987817;28;20062;-68
2021/03/17 08:24:40;;;;;;;19.75;9.95;;;4.90;99.90;;;;;;4989498;28;20054;-67
2021/03/17 08:27:07;;;;;;;17.88;9.38;;;5.10;99.90;;;;;;4992966;28;20046;-67
2021/03/17 08:30:06;;;;;;;16.15;9.95;;;5.20;99.90;;;;;;4991210;28;20050;-66
2021/03/17 08:33:00;;;;;;;16.58;10.32;;;5.30;99.90;;;;;;4991296;28;20461;-67
2021/03/17 08:36:00;;;;;;;17.52;10.13;;;5.40;99.90;;;;;;4992249;28;20090;-67
2021/03/17 08:38:46;;;;;;;19.98;10.88;;;5.30;99.90;;;;;;4996626;28;20056;-67
2021/03/17 08:41:13;;;;;;;20.98;10.90;;;5.30;99.90;;;;;;4994095;28;20046;-67
2021/03/17 08:43:42;;;;;;;19.60;10.60;;;5.40;99.90;;;;;;4992268;28;20086;-67
2021/03/17 08:46:19;;;;;;;17.25;10.40;;;5.20;99.90;;;;;;5006372;28;20060;-66
2021/03/17 08:49:03;;;;;;;;;;;5.20;99.90;;;;;;5003236;28;20053;-67
2021/03/17 08:51:49;;;;;;;18.95;9.57;;;5.10;99.90;;;;;;4997347;28;20040;-67
2021/03/17 08:54:33;;;;;;;18.67;10.75;;;5.10;99.90;;;;;;4995879;28;20046;-67
2021/03/17 08:57:09;;;;;;;18.00;10.20;;;5.10;99.90;;;;;;4991417;28;20042;-67
2021/03/17 08:59:41;;;;;;;17.20;10.50;;;5.30;99.90;;;;;;4987838;28;20086;-67
2021/03/17 09:02:16;;;;;;;16.02;9.38;;;5.50;99.90;;;;;;4999333;28;20058;-67
2021/03/17 09:04:51;;;;;;;17.67;9.07;;;5.70;99.90;;;;;;4998375;28;20543;-67
2021/03/17 09:07:19;;;;;;;16.33;9.02;;;6.00;99.90;;;;;;4991986;28;20449;-66
2021/03/17 09:09:54;;;;;;;16.75;9.88;;;6.20;99.90;;;;;;4992206;28;20134;-66
2021/03/17 09:12:27;;;;;;;16.35;9.05;;;6.30;99.90;;;;;;4992135;28;20435;-66
2021/03/17 09:15:15;;;;;;;13.05;8.50;;;6.50;99.90;;;;;;4992266;28;20137;-66
2021/03/17 09:17:48;;;;;;;14.02;8.68;;;6.80;99.90;;;;;;4997759;28;20133;-66
2021/03/17 09:20:28;;;;;;;16.88;9.70;;;6.80;99.90;;;;;;4994038;28;20042;-66
2021/03/17 09:22:57;;;;;;;14.95;9.65;;;6.80;99.90;;;;;;4991340;28;20046;-67
2021/03/17 09:25:55;;;;;;;17.02;8.88;;;6.50;99.90;;;;;;4991505;28;20048;-66
2021/03/17 09:28:25;;;;;;;17.33;9.23;;;6.20;99.90;;;;;;4993071;28;20134;-68
2021/03/17 09:31:01;;;;;;;15.20;8.70;;;6.20;99.90;;;;;;4989982;28;20081;-67
2021/03/17 09:33:36;;;;;;;14.18;9.30;;;6.30;99.90;;;;;;4991927;28;20112;-67
2021/03/17 09:36:10;;;;;;;14.15;9.43;;;6.50;99.90;;;;;;4991006;28;20042;-67
2021/03/17 09:38:39;;;;;;;12.52;8.60;;;6.40;99.90;;;;;;4992166;28;20054;-68
2021/03/17 09:41:10;;;;;;;13.55;8.88;;;6.40;99.90;;;;;;4991110;28;20047;-68
2021/03/17 09:43:59;;;;;;;11.10;7.70;;;6.50;99.90;;;;;;4992843;28;20046;-66
2021/03/17 09:46:40;;;;;;;14.18;8.07;;;6.70;99.90;;;;;;4997415;28;20050;-66
2021/03/17 09:49:18;;;;;;;10.30;7.60;;;6.90;99.90;;;;;;4994313;28;20054;-66
2021/03/17 09:51:47;;;;;;;11.27;8.52;;;7.40;99.90;;;;;;4987953;28;20301;-66
2021/03/17 09:54:17;;;;;;;11.73;7.30;;;7.80;99.90;;;;;;4990624;28;20421;-67
2021/03/17 09:56:54;;;;;;;10.20;6.90;;;8.20;99.90;;;;;;4991846;28;20046;-67
2021/03/17 09:59:35;;;;;;;8.23;6.88;;;8.00;99.90;;;;;;4998320;28;20393;-66
2021/03/17 10:02:10;;;;;;;9.07;7.30;;;7.90;99.90;;;;;;4979274;28;20061;-67
2021/03/17 10:04:42;;;;;;;13.50;8.07;;;7.80;99.90;;;;;;4992372;28;20096;-66
2021/03/17 10:07:11;;;;;;;10.68;7.55;;;7.40;99.90;;;;;;4992353;28;20610;-66
2021/03/17 10:09:39;;;;;;;12.05;7.85;;;7.10;99.90;;;;;;4991481;28;20494;-66
2021/03/17 10:12:05;;;;;;;10.40;8.50;;;6.70;99.90;;;;;;4978386;28;20053;-66
2021/03/17 10:14:33;;;;;;;11.43;8.68;;;6.40;99.90;;;;;;5004818;28;20120;-67
2021/03/17 10:17:01;;;;;;;10.43;7.10;;;6.00;99.90;;;;;;4984293;28;20046;-67
2021/03/17 10:19:30;;;;;;;8.95;7.45;;;5.90;99.90;;;;;;4989384;28;20065;-67
2021/03/17 10:21:57;;;;;;;10.13;7.43;;;5.60;99.90;;;;;;4980375;28;20045;-68
2021/03/17 10:24:46;;;;;;;8.93;6.80;;;5.50;99.90;;;;;;4991485;28;20458;-67
2021/03/17 10:27:15;;;;;;;11.43;6.90;;;5.40;99.90;;;;;;4990981;28;20061;-67
2021/03/17 10:29:44;;;;;;;8.48;6.57;;;5.40;99.90;;;;;;4983267;28;20058;-68
2021/03/17 10:32:15;;;;;;;9.00;7.30;;;5.30;99.90;;;;;;4976316;28;20537;-68
2021/03/17 10:34:42;;;;;;;16.97;8.63;;;5.20;99.90;;;;;;4992670;28;20060;-67
2021/03/17 10:37:19;;;;;;;8.63;6.55;;;5.20;99.90;;;;;;4992848;28;20392;-68
2021/03/17 10:39:51;;;;;;;9.07;6.97;;;5.20;99.90;;;;;;4986330;28;20097;-67
2021/03/17 10:42:26;;;;;;;8.82;6.80;;;5.20;99.90;;;;;;4975498;28;20066;-67
2021/03/17 10:45:10;;;;;;;11.52;7.00;;;5.20;99.90;;;;;;4989738;28;20129;-68
2021/03/17 10:47:38;;;;;;;8.93;6.05;;;5.20;99.90;;;;;;4989779;28;20393;-67
2021/03/17 10:50:08;;;;;;;7.07;6.38;;;5.30;99.90;;;;;;4991943;28;20050;-67
2021/03/17 10:52:46;;;;;;;8.00;5.80;;;5.50;99.90;;;;;;4991479;28;20054;-67
2021/03/17 10:55:22;;;;;;;6.20;5.57;;;5.40;99.90;;;;;;4979554;28;20081;-67
2021/03/17 10:57:50;;;;;;;6.20;5.60;;;5.40;99.90;;;;;;5007350;28;20049;-67
2021/03/17 11:00:26;;;;;;;8.10;5.90;;;5.30;99.90;;;;;;5008788;28;20038;-67
2021/03/17 11:02:54;;;;;;;6.13;5.38;;;5.20;99.90;;;;;;4994402;28;20053;-67
2021/03/17 11:05:22;;;;;;;8.48;5.50;;;5.20;99.90;;;;;;5009721;28;20077;-68
2021/03/17 11:08:07;;;;;;;7.25;6.00;;;5.30;99.90;;;;;;4995055;28;20052;-69
2021/03/17 11:10:37;;;;;;;8.80;5.80;;;5.70;99.90;;;;;;4998122;28;20474;-69
2021/03/17 11:13:09;;;;;;;7.65;6.28;;;6.00;99.90;;;;;;4996395;28;20057;-68
2021/03/17 11:15:41;;;;;;;6.53;5.85;;;6.00;99.90;;;;;;4995812;28;20046;-69
2021/03/17 11:18:08;;;;;;;9.20;6.00;;;6.00;99.90;;;;;;4994080;28;20064;-66
2021/03/17 11:20:43;;;;;;;5.40;4.88;;;6.40;99.90;;;;;;4977607;28;20158;-67
2021/03/17 11:23:16;;;;;;;8.90;5.80;;;6.90;99.90;;;;;;4988353;28;20150;-68
2021/03/17 11:25:44;;;;;;;9.25;5.32;;;7.30;99.90;;;;;;4985257;28;20057;-67
2021/03/17 11:28:17;;;;;;;6.75;5.10;;;7.60;99.90;;;;;;4994716;28;20046;-67
2021/03/17 11:30:58;;;;;;;9.73;5.85;;;7.60;99.90;;;;;;4993274;28;20046;-67
2021/03/17 11:33:25;;;;;;;6.70;5.13;;;7.40;99.90;;;;;;4988825;28;20412;-66
2021/03/17 11:35:54;;;;;;;7.72;5.68;;;6.90;99.90;;;;;;4997482;28;20042;-67
2021/03/17 11:38:22;;;;;;;7.75;5.53;;;6.90;99.90;;;;;;4994295;28;20052;-67
2021/03/17 11:40:50;;;;;;;7.97;5.88;;;6.70;99.90;;;;;;4994588;28;20365;-67
2021/03/17 11:43:20;;;;;;;7.72;5.95;;;6.60;99.90;;;;;;4992972;28;20046;-67
2021/03/17 11:45:48;;;;;;;7.05;5.70;;;6.30;99.90;;;;;;4993984;28;20561;-66
2021/03/17 11:48:15;;;;;;;6.55;5.78;;;6.00;99.90;;;;;;4993799;28;20392;-67
2021/03/17 11:50:44;;;;;;;8.20;5.88;;;5.80;99.90;;;;;;4994711;28;20152;-67
2021/03/17 11:53:14;;;;;;;8.85;5.70;;;5.70;99.90;;;;;;4993774;28;20056;-66
2021/03/17 11:55:40;;;;;;;8.10;6.32;;;5.60;99.90;;;;;;4994724;28;20056;-68
2021/03/17 11:58:07;;;;;;;6.47;5.85;;;5.60;99.90;;;;;;4993498;28;20515;-67
2021/03/17 12:00:34;;;;;;;6.18;5.30;;;5.70;99.90;;;;;;4995349;28;20489;-68
2021/03/17 12:03:00;;;;;;;7.22;5.47;;;5.80;99.90;;;;;;4994127;28;20078;-67
2021/03/17 12:05:28;;;;;;;6.45;5.80;;;5.90;99.90;;;;;;4993791;28;20077;-67
2021/03/17 12:07:55;;;;;;;7.53;5.63;;;6.00;99.90;;;;;;4992919;28;20416;-66
2021/03/17 12:10:23;;;;;;;7.15;5.55;;;6.10;99.90;;;;;;4983353;28;20057;-67
2021/03/17 12:12:49;;;;;;;8.50;5.35;;;5.90;99.90;;;;;;4994022;28;20456;-67
2021/03/17 12:15:18;;;;;;;7.85;5.47;;;5.80;99.90;;;;;;4994428;28;20056;-68
2021/03/17 12:17:46;;;;;;;6.95;5.40;;;5.90;99.90;;;;;;4993743;28;20050;-68
2021/03/17 12:20:14;;;;;;;6.85;4.60;;;5.80;99.90;;;;;;4991655;28;20051;-67
2021/03/17 12:22:41;;;;;;;7.47;4.75;;;5.70;99.90;;;;;;4974260;28;20544;-66
2021/03/17 12:25:10;;;;;;;8.15;4.60;;;5.70;99.90;;;;;;4989640;28;20076;-66
2021/03/17 12:27:37;;;;;;;6.68;4.90;;;5.50;99.90;;;;;;4993582;28;20050;-67
2021/03/17 12:30:09;;;;;;;8.20;5.53;;;5.50;99.90;;;;;;4993683;28;20060;-67
2021/03/17 12:32:36;;;;;;;11.07;6.10;;;5.50;99.90;;;;;;4983116;28;20553;-66
2021/03/17 12:35:05;;;;;;;8.23;5.60;;;5.70;99.90;;;;;;4993988;28;20497;-66
2021/03/17 12:37:32;;;;;;;8.80;4.97;;;5.90;99.90;;;;;;4992213;28;20572;-68
2021/03/17 12:39:59;;;;;;;9.57;5.95;;;6.10;99.90;;;;;;4993123;28;20473;-67
2021/03/17 12:42:26;;;;;;;9.65;5.72;;;6.60;99.90;;;;;;4992575;28;20077;-66
2021/03/17 12:44:52;;;;;;;7.50;5.20;;;7.10;99.90;;;;;;4993192;28;20192;-67
2021/03/17 12:47:19;;;;;;;6.50;5.72;;;7.70;99.90;;;;;;4992145;28;20124;-66
2021/03/17 12:49:45;;;;;;;8.00;5.40;;;7.70;99.90;;;;;;4992745;28;20417;-66
2021/03/17 12:52:12;;;;;;;9.63;5.95;;;7.70;99.90;;;;;;4992494;28;20054;-66
2021/03/17 12:54:42;;;;;;;8.88;6.53;;;7.60;99.90;;;;;;4993813;28;20050;-68
2021/03/17 12:57:09;;;;;;;11.65;6.25;;;7.70;99.90;;;;;;4992747;28;20487;-67
2021/03/17 12:59:36;;;;;;;10.90;7.15;;;7.70;99.90;;;;;;4993437;28;20038;-68
2021/03/17 13:02:06;;;;;;;8.93;6.32;;;7.40;99.90;;;;;;4992136;28;20478;-69
2021/03/17 13:04:33;;;;;;;10.52;6.30;;;7.10;99.90;;;;;;4992750;28;20101;-67
2021/03/17 13:07:00;;;;;;;8.63;6.07;;;6.90;99.90;;;;;;4990656;28;20512;-67